»·PEaware :: AWE180 KLAX-KPHX

AWE180 :: KLAX-KPHX

FLIGHT INFORMATION

Flight Status: Arrived
Operator:
US Airways
More flights by this operator :: More flights under this callsign
Pilot: Etienne B. (28927)
Aircraft: AIRBUS A320
(A320)
More flights by this aircraft type
Origin: KLAX Los Angeles Intl
United States
Destination: KPHX Phoenix Sky Harbor Intl
United States
More flights between these airports :: More routes between these airports
Route: DOTSS2 CNERY BLH HYDRR1
File this flight plan on PilotEdge
Remarks: RMK / SIMBRIEF
Altitude:
(Current/Filed)
35,000ft
Speed:
(Current/Filed)
444kts
Departed: 12-May-20 04:54 PM
Arrived: 12-May-20 05:53 PM
Distance/Time
Traveled:
321nm/0:59
Distance/Time
To Go:
Arrived

Flight Plot

Page will automatically refresh every two minutes.

Flight plan parsing failed; only flown route is shown


Map Options




Map Legend


Flown Route
Filed Route
Departure Airport
Arrival Airport
Navaid (VOR, NDB)
Fix

Horizontal Profiles

Position Reports

Time Latitude Longitude Heading Altitude Ground
Speed
12-May-20 16:36 33.941947 -118.397727 83 120ft 0kts
12-May-20 16:37 33.941947 -118.397727 83 120ft 0kts
12-May-20 16:38 33.941947 -118.397727 83 120ft 0kts
12-May-20 16:39 33.941947 -118.397727 83 120ft 0kts
12-May-20 16:40 33.941947 -118.397727 83 120ft 0kts
12-May-20 16:41 33.941947 -118.397727 83 120ft 0kts
12-May-20 16:42 33.941947 -118.397727 83 120ft 0kts
12-May-20 16:43 33.941946 -118.398015 105 120ft 2kts
12-May-20 16:44 33.942258 -118.398438 161 121ft 2kts
12-May-20 16:45 33.942405 -118.398474 173 121ft 0kts
12-May-20 16:46 33.942241 -118.398452 173 121ft 4kts
12-May-20 16:47 33.939465 -118.398081 157 119ft 12kts
12-May-20 16:48 33.939202 -118.395876 83 115ft 9kts
12-May-20 16:49 33.939514 -118.392779 83 111ft 13kts
12-May-20 16:50 33.939897 -118.389031 82 109ft 15kts
12-May-20 16:51 33.940496 -118.383168 83 105ft 20kts
12-May-20 16:52 33.940761 -118.380416 94 104ft 7kts
12-May-20 16:53 33.939605 -118.382425 263 105ft 56kts
12-May-20 16:54 33.934911 -118.426727 262 1341ft 191kts
12-May-20 16:55 33.909367 -118.492132 231 4121ft 249kts
12-May-20 16:56 33.856889 -118.557045 200 5023ft 257kts
12-May-20 16:57 33.783108 -118.544364 170 6010ft 271kts
12-May-20 16:58 33.703879 -118.517978 146 9369ft 295kts
12-May-20 16:59 33.666926 -118.420299 111 11273ft 359kts
12-May-20 17:00 33.644287 -118.295034 90 12969ft 401kts
12-May-20 17:01 33.644617 -118.158395 90 15125ft 414kts
12-May-20 17:02 33.644585 -118.035626 90 16850ft 425kts
12-May-20 17:03 33.644411 -117.925365 90 18223ft 434kts
12-May-20 17:04 33.643521 -117.805452 96 19572ft 443kts
12-May-20 17:05 33.616142 -117.681488 107 20886ft 451kts
12-May-20 17:06 33.583335 -117.548706 107 22203ft 460kts
12-May-20 17:07 33.549388 -117.411892 107 23442ft 468kts
12-May-20 17:08 33.516003 -117.278044 108 24524ft 475kts
12-May-20 17:09 33.503328 -117.127964 90 25548ft 485kts
12-May-20 17:10 33.501238 -116.968094 90 26556ft 492kts
12-May-20 17:11 33.498688 -116.800241 90 27502ft 500kts
12-May-20 17:12 33.495695 -116.620137 90 28412ft 507kts
12-May-20 17:13 33.492316 -116.432492 90 29741ft 504kts
12-May-20 17:14 33.489496 -116.244852 90 30966ft 502kts
12-May-20 17:15 33.487967 -116.047005 82 32186ft 498kts
12-May-20 17:16 33.538080 -115.856414 68 33298ft 493kts
12-May-20 17:17 33.594024 -115.664237 68 34374ft 490kts
12-May-20 17:18 33.626545 -115.481272 97 34839ft 495kts
12-May-20 17:19 33.611427 -115.317981 91 34844ft 494kts
12-May-20 17:20 33.607086 -115.153408 91 34852ft 495kts
12-May-20 17:21 33.602603 -114.988562 92 34736ft 494kts
12-May-20 17:22 33.597939 -114.824765 92 33784ft 492kts
12-May-20 17:23 33.577056 -114.663020 104 32818ft 493kts
12-May-20 17:24 33.546033 -114.503850 104 30492ft 494kts
12-May-20 17:25 33.514305 -114.342244 105 27150ft 506kts
12-May-20 17:26 33.483452 -114.185528 105 25382ft 443kts
12-May-20 17:27 33.456446 -114.049919 106 24873ft 424kts
12-May-20 17:28 33.428338 -113.910485 105 24023ft 429kts
12-May-20 17:29 33.400604 -113.772497 105 23357ft 424kts
12-May-20 17:30 33.372971 -113.635987 105 22697ft 419kts
12-May-20 17:31 33.345574 -113.501459 105 22047ft 415kts
12-May-20 17:32 33.321194 -113.367528 103 21082ft 409kts
12-May-20 17:33 33.298280 -113.235291 103 20008ft 402kts
12-May-20 17:34 33.279462 -113.105210 102 19041ft 387kts
12-May-20 17:35 33.276642 -112.980347 90 18125ft 373kts
12-May-20 17:37 33.279667 -112.857343 91 17212ft 361kts
12-May-20 17:38 33.288109 -112.741681 86 16050ft 346kts
12-May-20 17:39 33.298709 -112.628296 86 14688ft 340kts
12-May-20 17:40 33.309037 -112.516986 86 13352ft 333kts
12-May-20 17:41 33.319030 -112.408236 86 12057ft 326kts
12-May-20 17:42 33.328735 -112.301920 86 10707ft 318kts
12-May-20 17:43 33.338112 -112.198454 86 9491ft 304kts
12-May-20 17:44 33.346600 -112.105283 85 9089ft 271kts
12-May-20 17:45 33.346697 -112.014656 93 8015ft 271kts
12-May-20 17:46 33.345581 -111.925892 91 6899ft 269kts
12-May-20 17:47 33.346847 -111.836044 90 5540ft 275kts
12-May-20 17:48 33.386994 -111.771834 2 4285ft 261kts
12-May-20 17:49 33.432435 -111.818023 280 3432ft 221kts
12-May-20 17:50 33.440873 -111.884337 272 3077ft 177kts
12-May-20 17:51 33.440825 -111.936530 271 2063ft 139kts
12-May-20 17:52 33.440832 -111.980164 270 1358ft 141kts
12-May-20 17:53 33.440360 -112.007305 196 1131ft 4kts
12-May-20 17:54 33.439188 -112.007470 217 1131ft 5kts
12-May-20 17:54 33.438305 -112.008511 214 1128ft 6kts

Navigation Log

Ident Type
Flight plan parsing failed, navigation log unavailable